createdAt,value
2023-03-30T00:00:53.108Z,94755.75
2023-03-30T00:03:22.764Z,94738.63
2023-03-30T00:05:56.528Z,94758.59
2023-03-30T00:08:28.265Z,94755.56
2023-03-30T00:11:00.681Z,94738.13
2023-03-30T00:13:27.448Z,94748.22
2023-03-30T00:15:55.837Z,94746.19
2023-03-30T00:18:22.458Z,94738.34
2023-03-30T00:20:49.618Z,94732.25
2023-03-30T00:23:16.291Z,94740.69
2023-03-30T00:25:43.237Z,94722.81
2023-03-30T00:28:09.886Z,94709.88
2023-03-30T00:30:37.170Z,94722.75
2023-03-30T00:33:05.364Z,94709.63
2023-03-30T00:35:32.110Z,94704.19
2023-03-30T00:38:01.663Z,94714.91
2023-03-30T00:40:29.730Z,94709.09
2023-03-30T00:42:59.615Z,94696.22
2023-03-30T00:45:27.742Z,94704.41
2023-03-30T00:48:00.117Z,94693.00
2023-03-30T00:50:35.349Z,94710.78
2023-03-30T00:53:09.818Z,94704.50
2023-03-30T00:55:39.581Z,94695.47
2023-03-30T00:58:07.179Z,94696.50
2023-03-30T01:00:34.333Z,94678.78
2023-03-30T01:03:06.388Z,94692.59
2023-03-30T01:05:37.376Z,94686.69
2023-03-30T01:08:07.647Z,94682.69
2023-03-30T01:10:35.023Z,94680.88
2023-03-30T01:13:01.748Z,94677.31
2023-03-30T01:15:34.961Z,94679.72
2023-03-30T01:18:24.081Z,94673.41
2023-03-30T01:25:11.228Z,94674.44
2023-03-30T01:28:05.971Z,94675.56
2023-03-30T01:30:51.743Z,94676.63
2023-03-30T01:33:50.199Z,94684.06
2023-03-30T01:36:39.974Z,94678.53
2023-03-30T01:39:20.097Z,94671.69
2023-03-30T01:41:54.690Z,94681.19
2023-03-30T01:44:31.124Z,94683.03
2023-03-30T01:47:06.320Z,94685.13
2023-03-30T01:49:40.787Z,94674.78
2023-03-30T01:52:16.284Z,94687.50
2023-03-30T01:54:49.244Z,94682.31
2023-03-30T01:57:18.927Z,94678.13
2023-03-30T01:59:52.223Z,94688.94
2023-03-30T02:02:23.931Z,94683.41
2023-03-30T02:04:54.364Z,94690.00
2023-03-30T02:07:24.482Z,94678.97
2023-03-30T02:09:55.843Z,94682.03
2023-03-30T02:12:25.392Z,94660.75
2023-03-30T02:14:53.147Z,94680.19
2023-03-30T02:17:23.069Z,94647.78
2023-03-30T02:19:50.989Z,94655.00
2023-03-30T02:22:20.187Z,94663.56
2023-03-30T02:24:49.414Z,94668.59
2023-03-30T02:27:18.046Z,94659.88
2023-03-30T02:29:46.064Z,94664.22
2023-03-30T02:32:18.808Z,94667.78
2023-03-30T02:34:58.197Z,94661.25
2023-03-30T02:37:49.141Z,94664.72
2023-03-30T02:40:32.720Z,94678.25
2023-03-30T02:43:24.001Z,94678.69
2023-03-30T02:45:53.791Z,94669.75
2023-03-30T02:48:31.773Z,94688.81
2023-03-30T02:51:08.777Z,94695.47
2023-03-30T02:53:43.103Z,94704.06
2023-03-30T02:56:15.978Z,94713.97
2023-03-30T02:58:48.440Z,94697.06
2023-03-30T03:01:19.828Z,94682.50
2023-03-30T03:03:48.965Z,94684.34
2023-03-30T03:06:16.341Z,94685.69
2023-03-30T03:08:44.790Z,94689.72
2023-03-30T03:11:11.470Z,94693.56
2023-03-30T03:13:38.723Z,94682.13
2023-03-30T03:16:12.223Z,94680.19
2023-03-30T03:18:39.988Z,94680.53
2023-03-30T03:21:07.440Z,94669.84
2023-03-30T03:23:34.236Z,94664.13
2023-03-30T03:26:01.054Z,94653.78
2023-03-30T03:28:27.763Z,94650.31
2023-03-30T03:30:54.645Z,94644.72
2023-03-30T03:33:22.991Z,94623.34
2023-03-30T03:35:53.969Z,94630.13
2023-03-30T03:38:21.985Z,94620.00
2023-03-30T03:40:50.048Z,94620.00
2023-03-30T03:43:16.662Z,94611.97
2023-03-30T03:45:45.544Z,94599.56
2023-03-30T03:48:12.267Z,94601.63
2023-03-30T03:50:40.382Z,94588.06
2023-03-30T03:53:06.992Z,94591.75
2023-03-30T03:55:35.236Z,94593.34
2023-03-30T03:58:02.315Z,94599.19
2023-03-30T04:00:29.341Z,94616.06
2023-03-30T04:02:57.108Z,94616.50
2023-03-30T04:05:23.939Z,94610.06
2023-03-30T04:07:53.513Z,94610.41
2023-03-30T04:10:21.114Z,94609.50
2023-03-30T04:12:47.851Z,94611.25
2023-03-30T04:15:14.460Z,94617.25
2023-03-30T04:17:41.197Z,94618.28
2023-03-30T04:20:11.523Z,94625.88
2023-03-30T04:22:41.592Z,94616.66
2023-03-30T04:25:11.554Z,94624.38
2023-03-30T04:27:38.250Z,94634.13
2023-03-30T04:30:05.538Z,94630.22
2023-03-30T04:32:34.897Z,94650.31
2023-03-30T04:35:01.860Z,94656.66
2023-03-30T04:37:31.370Z,94667.72
2023-03-30T04:39:58.451Z,94729.34
2023-03-30T04:42:30.205Z,94752.16
2023-03-30T04:44:57.491Z,94759.78
2023-03-30T04:47:24.705Z,94727.44
2023-03-30T04:49:51.598Z,94778.88
2023-03-30T04:52:18.976Z,94781.41
2023-03-30T04:54:45.655Z,94784.44
2023-03-30T04:57:13.989Z,94797.59
2023-03-30T04:59:43.235Z,94790.38
2023-03-30T05:02:11.936Z,94792.22
2023-03-30T05:04:39.020Z,94797.22
2023-03-30T05:07:06.782Z,94805.34
2023-03-30T05:09:33.684Z,94812.25
2023-03-30T05:12:00.250Z,94810.91
2023-03-30T05:14:26.790Z,94805.66
2023-03-30T05:16:54.799Z,94812.56
2023-03-30T05:19:21.807Z,94799.34
2023-03-30T05:21:48.343Z,94797.97
2023-03-30T05:24:15.083Z,94794.03
2023-03-30T05:26:41.907Z,94788.25
2023-03-30T05:29:08.761Z,94785.50
2023-03-30T05:31:35.572Z,94777.91
2023-03-30T05:34:03.774Z,94764.56
2023-03-30T05:36:30.551Z,94750.28
2023-03-30T05:38:57.241Z,94730.16
2023-03-30T05:41:26.784Z,94716.53
2023-03-30T05:43:53.366Z,94709.28
2023-03-30T05:46:20.105Z,94694.66
2023-03-30T05:48:46.738Z,94695.94
2023-03-30T05:51:14.643Z,94683.22
2023-03-30T05:53:41.270Z,94680.88
2023-03-30T05:56:10.381Z,94674.00
2023-03-30T05:58:36.975Z,94644.38
2023-03-30T06:01:05.939Z,94650.31
2023-03-30T06:03:33.176Z,94628.28
2023-03-30T06:06:00.385Z,94626.09
2023-03-30T06:08:28.777Z,94613.69
2023-03-30T06:10:56.468Z,94603.38
2023-03-30T06:13:23.654Z,94584.59
2023-03-30T06:15:50.251Z,94570.69
2023-03-30T06:18:17.115Z,94570.69
2023-03-30T06:20:47.317Z,94577.97
2023-03-30T06:23:13.946Z,94564.00
2023-03-30T06:25:45.559Z,94569.06
2023-03-30T06:28:12.265Z,94548.69
2023-03-30T06:30:39.345Z,94558.22
2023-03-30T06:33:05.973Z,94547.34
2023-03-30T06:35:32.904Z,94552.66
2023-03-30T06:37:59.575Z,94545.53
2023-03-30T06:40:26.460Z,94546.88
2023-03-30T06:42:54.468Z,94535.59
2023-03-30T06:45:21.088Z,94530.09
2023-03-30T06:47:48.173Z,94522.22
2023-03-30T06:50:14.946Z,94508.72
2023-03-30T06:52:41.609Z,94507.78
2023-03-30T06:55:09.424Z,94498.25
2023-03-30T06:57:36.017Z,94501.34
2023-03-30T07:00:15.185Z,94499.28
2023-03-30T07:02:42.146Z,94492.75
2023-03-30T07:05:09.570Z,94484.06
2023-03-30T07:07:37.353Z,94484.50
2023-03-30T07:10:10.040Z,94481.88
2023-03-30T07:12:36.848Z,94482.06
2023-03-30T07:15:07.161Z,94478.81
2023-03-30T07:17:34.272Z,94481.47
2023-03-30T07:20:01.799Z,94464.84
2023-03-30T07:22:28.457Z,94467.84
2023-03-30T07:24:55.695Z,94462.72
2023-03-30T07:27:25.412Z,94460.13
2023-03-30T07:29:53.063Z,94461.13
2023-03-30T07:32:21.374Z,94455.16
2023-03-30T07:34:48.019Z,94458.91
2023-03-30T07:37:20.346Z,94456.94
2023-03-30T07:39:47.895Z,94462.84
2023-03-30T07:42:14.880Z,94469.84
2023-03-30T07:44:41.460Z,94462.66
2023-03-30T07:47:08.236Z,94457.22
2023-03-30T07:49:36.208Z,94450.38
2023-03-30T07:52:02.834Z,94458.13
2023-03-30T07:54:29.395Z,94459.47
2023-03-30T07:56:56.769Z,94461.41
2023-03-30T07:59:24.087Z,94450.91
2023-03-30T08:01:52.122Z,94459.50
2023-03-30T08:04:19.097Z,94466.81
2023-03-30T08:06:47.529Z,94464.31
2023-03-30T08:09:14.323Z,94466.47
2023-03-30T08:11:41.734Z,94465.81
2023-03-30T08:14:08.320Z,94466.59
2023-03-30T08:16:34.912Z,94462.28
2023-03-30T08:19:01.820Z,94466.09
2023-03-30T08:21:28.407Z,94461.25
2023-03-30T08:23:58.828Z,94463.28
2023-03-30T08:26:26.238Z,94442.22
2023-03-30T08:28:52.965Z,94440.53
2023-03-30T08:31:21.015Z,94440.00
2023-03-30T08:33:48.332Z,94448.47
2023-03-30T08:36:15.238Z,94451.28
2023-03-30T08:38:42.591Z,94450.78
2023-03-30T08:41:35.306Z,94453.81
2023-03-30T08:44:05.960Z,94463.97
2023-03-30T08:46:33.877Z,94465.91
2023-03-30T08:49:06.651Z,94459.34
2023-03-30T08:51:35.512Z,94462.28
2023-03-30T08:54:05.583Z,94462.69
2023-03-30T08:56:39.711Z,94451.66
2023-03-30T08:59:18.412Z,94444.00
2023-03-30T09:01:49.936Z,94457.59
2023-03-30T09:04:23.644Z,94448.34
2023-03-30T09:06:52.622Z,94448.91
2023-03-30T09:09:22.535Z,94443.16
2023-03-30T09:11:56.263Z,94450.38
2023-03-30T09:14:31.129Z,94458.78
2023-03-30T09:17:05.447Z,94450.22
2023-03-30T09:19:40.702Z,94449.63
2023-03-30T09:22:07.723Z,94443.41
2023-03-30T09:24:34.721Z,94454.94
2023-03-30T09:27:09.503Z,94430.34
2023-03-30T09:29:43.724Z,94434.88
2023-03-30T09:32:14.602Z,94437.06
2023-03-30T09:34:46.748Z,94445.44
2023-03-30T09:37:18.557Z,94443.75
2023-03-30T09:39:49.259Z,94435.31
2023-03-30T09:42:32.748Z,94437.63
2023-03-30T09:45:05.461Z,94424.94
2023-03-30T09:47:36.540Z,94454.50
2023-03-30T09:50:07.803Z,94448.88
2023-03-30T09:52:37.156Z,94443.88
2023-03-30T09:55:24.176Z,94441.91
2023-03-30T09:57:53.566Z,94444.59
2023-03-30T10:00:26.485Z,94454.31
2023-03-30T10:02:58.066Z,94437.19
2023-03-30T10:05:25.715Z,94439.19
2023-03-30T10:07:54.862Z,94430.75
2023-03-30T10:10:31.489Z,94436.03
2023-03-30T10:13:06.520Z,94436.19
2023-03-30T10:15:38.651Z,94428.97
2023-03-30T10:18:26.737Z,94434.03
2023-03-30T10:21:00.113Z,94420.75
2023-03-30T10:23:33.274Z,94424.13
2023-03-30T10:26:03.477Z,94430.66
2023-03-30T10:28:33.940Z,94435.97
2023-03-30T10:31:03.268Z,94433.81
2023-03-30T10:33:31.160Z,94426.59
2023-03-30T10:36:03.276Z,94442.22
2023-03-30T10:38:33.199Z,94439.28
2023-03-30T10:41:07.260Z,94443.75
2023-03-30T10:43:36.842Z,94433.13
2023-03-30T10:46:18.366Z,94439.75
2023-03-30T10:49:03.717Z,94437.25
2023-03-30T10:51:42.102Z,94435.00
2023-03-30T10:54:16.646Z,94423.94
2023-03-30T10:56:47.116Z,94442.22
2023-03-30T10:59:41.502Z,94439.56
2023-03-30T11:02:39.785Z,94439.91
2023-03-30T11:05:12.417Z,94463.66
2023-03-30T11:07:43.794Z,94458.84
2023-03-30T11:10:17.958Z,94453.63
2023-03-30T11:12:48.057Z,94458.78
2023-03-30T11:15:21.835Z,94463.34
2023-03-30T11:17:56.241Z,94465.50
2023-03-30T11:20:27.477Z,94478.47
2023-03-30T11:23:06.054Z,94479.63
2023-03-30T11:25:37.212Z,94476.34
2023-03-30T11:28:18.105Z,94500.78
2023-03-30T11:30:46.323Z,94504.16
2023-03-30T11:33:23.511Z,94515.84
2023-03-30T11:35:55.825Z,94527.59
2023-03-30T11:38:29.203Z,94544.88
2023-03-30T11:41:00.528Z,94562.06
2023-03-30T11:43:30.097Z,94573.13
2023-03-30T11:46:02.895Z,94584.69
2023-03-30T11:49:01.676Z,94587.97
2023-03-30T11:51:45.218Z,94610.09
2023-03-30T11:54:30.303Z,94614.06
2023-03-30T11:57:04.116Z,94643.94
2023-03-30T11:59:39.297Z,94649.19
2023-03-30T12:02:14.778Z,94649.63
2023-03-30T12:04:48.152Z,94665.31
2023-03-30T12:07:30.607Z,94672.13
2023-03-30T12:10:04.563Z,94700.13
2023-03-30T12:12:36.362Z,94702.16
2023-03-30T12:15:15.864Z,94723.16
2023-03-30T12:17:51.361Z,94709.56
2023-03-30T12:20:29.724Z,94718.97
2023-03-30T12:23:01.206Z,94733.91
2023-03-30T12:25:35.832Z,94729.34
2023-03-30T12:28:12.040Z,94733.97
2023-03-30T12:30:44.875Z,94732.91
2023-03-30T12:33:18.471Z,94739.88
2023-03-30T12:36:23.080Z,94732.47
2023-03-30T12:38:50.154Z,94727.22
2023-03-30T12:41:20.651Z,94714.53
2023-03-30T12:44:19.173Z,94703.72
2023-03-30T12:46:59.425Z,94697.06
2023-03-30T12:49:40.928Z,94693.13
2023-03-30T12:52:13.974Z,94686.50
2023-03-30T12:55:11.368Z,94695.41
2023-03-30T12:57:51.560Z,94678.03
2023-03-30T13:00:50.500Z,94666.06
2023-03-30T13:03:38.489Z,94672.94
2023-03-30T13:06:14.476Z,94671.63
2023-03-30T13:08:42.229Z,94673.53
2023-03-30T13:11:13.441Z,94667.59
2023-03-30T13:13:47.733Z,94658.13
2023-03-30T13:16:14.986Z,94644.47
2023-03-30T13:18:54.009Z,94637.56
2023-03-30T13:21:24.654Z,94644.34
2023-03-30T13:24:01.259Z,94637.75
2023-03-30T13:26:41.467Z,94647.00
2023-03-30T13:29:11.153Z,94649.47
2023-03-30T13:31:44.094Z,94654.59
2023-03-30T13:34:22.124Z,94653.53
2023-03-30T13:36:59.463Z,94637.69
2023-03-30T13:39:31.279Z,94652.31
2023-03-30T13:42:15.241Z,94642.38
2023-03-30T13:44:56.079Z,94638.09
2023-03-30T13:47:37.505Z,94646.63
2023-03-30T13:50:12.290Z,94627.44
2023-03-30T13:52:44.180Z,94640.03
2023-03-30T13:55:19.054Z,94631.59
2023-03-30T13:57:45.762Z,94633.69
2023-03-30T14:00:33.074Z,94616.94
2023-03-30T14:03:00.762Z,94635.47
2023-03-30T14:05:27.885Z,94620.78
2023-03-30T14:07:58.382Z,94619.00
2023-03-30T14:10:27.001Z,94621.34
2023-03-30T14:12:55.577Z,94616.66
2023-03-30T14:15:24.502Z,94626.56
2023-03-30T14:17:54.457Z,94613.50
2023-03-30T14:20:45.283Z,94615.84
2023-03-30T14:23:18.139Z,94603.00
2023-03-30T14:25:45.388Z,94629.63
2023-03-30T14:28:14.218Z,94637.19
2023-03-30T14:30:50.949Z,94651.41
2023-03-30T14:33:18.153Z,94653.38
2023-03-30T14:35:49.291Z,94628.09
2023-03-30T14:38:21.300Z,94653.94
2023-03-30T14:40:48.958Z,94675.38
2023-03-30T14:43:19.278Z,94674.09
2023-03-30T14:45:46.903Z,94665.91
2023-03-30T14:48:23.576Z,94674.66
2023-03-30T14:50:50.639Z,94675.38
2023-03-30T14:53:25.414Z,94673.50
2023-03-30T14:55:56.965Z,94667.13
2023-03-30T14:58:26.193Z,94670.00
2023-03-30T15:00:58.503Z,94658.63
2023-03-30T15:03:33.558Z,94703.72
2023-03-30T15:06:02.622Z,94731.88
2023-03-30T15:08:33.609Z,94708.22
2023-03-30T15:11:04.325Z,94703.97
2023-03-30T15:13:35.643Z,94686.59
2023-03-30T15:16:04.030Z,94676.81
2023-03-30T15:18:33.069Z,94664.06
2023-03-30T15:21:00.331Z,94678.78
2023-03-30T15:23:35.485Z,94682.94
2023-03-30T15:26:04.900Z,94681.63
2023-03-30T15:28:35.049Z,94680.91
2023-03-30T15:31:01.804Z,94652.94
2023-03-30T15:33:34.761Z,94644.41
2023-03-30T15:36:05.529Z,94641.00
2023-03-30T15:38:41.314Z,94634.03
2023-03-30T15:41:14.099Z,94631.38
2023-03-30T15:43:53.664Z,94637.97
2023-03-30T15:46:20.598Z,94639.81
2023-03-30T15:48:49.037Z,94645.50
2023-03-30T15:51:21.062Z,94643.84
2023-03-30T15:53:52.624Z,94635.97
2023-03-30T15:56:23.513Z,94641.34
2023-03-30T15:58:51.211Z,94631.63
2023-03-30T16:01:17.879Z,94627.13
2023-03-30T16:03:53.376Z,94632.19
2023-03-30T16:06:21.492Z,94621.91
2023-03-30T16:08:49.540Z,94625.94
2023-03-30T16:11:18.768Z,94605.63
2023-03-30T16:13:48.011Z,94623.59
2023-03-30T16:16:15.335Z,94608.44
2023-03-30T16:18:42.704Z,94597.81
2023-03-30T16:21:10.943Z,94605.03
2023-03-30T16:23:37.785Z,94601.75
2023-03-30T16:26:09.473Z,94602.41
2023-03-30T16:28:36.270Z,94580.63
2023-03-30T16:31:07.735Z,94563.38
2023-03-30T16:33:34.447Z,94558.16
2023-03-30T16:36:01.159Z,94557.28
2023-03-30T16:38:30.942Z,94542.94
2023-03-30T16:40:59.884Z,94549.59
2023-03-30T16:43:27.859Z,94556.56
2023-03-30T16:45:54.503Z,94540.34
2023-03-30T16:48:21.871Z,94559.69
2023-03-30T16:50:53.090Z,94534.28
2023-03-30T16:53:19.992Z,94539.50
2023-03-30T16:55:46.830Z,94540.94
2023-03-30T16:58:14.892Z,94541.91
2023-03-30T17:00:45.009Z,94540.75
2023-03-30T17:03:11.940Z,94531.28
2023-03-30T17:05:42.508Z,94528.47
2023-03-30T17:08:17.774Z,94535.13
2023-03-30T17:10:44.336Z,94540.75
2023-03-30T17:13:11.474Z,94547.06
2023-03-30T17:15:39.084Z,94544.22
2023-03-30T17:18:12.208Z,94546.78
2023-03-30T17:20:42.396Z,94532.03
2023-03-30T17:23:10.234Z,94530.69
2023-03-30T17:25:39.574Z,94540.25
2023-03-30T17:28:08.705Z,94540.94
2023-03-30T17:30:40.039Z,94535.41
2023-03-30T17:33:10.789Z,94551.28
2023-03-30T17:35:38.617Z,94556.41
2023-03-30T17:38:07.895Z,94544.84
2023-03-30T17:40:38.742Z,94544.44
2023-03-30T17:43:06.070Z,94522.13
2023-03-30T17:45:34.601Z,94562.16
2023-03-30T17:48:01.874Z,94563.00
2023-03-30T17:50:32.039Z,94567.19
2023-03-30T17:52:58.922Z,94556.19
2023-03-30T17:55:27.784Z,94563.56
2023-03-30T17:57:55.051Z,94545.88
2023-03-30T18:00:24.810Z,94573.50
2023-03-30T18:02:52.336Z,94564.38
2023-03-30T18:05:20.263Z,94560.88
2023-03-30T18:07:48.496Z,94578.16
2023-03-30T18:10:24.235Z,94580.59
2023-03-30T18:12:51.924Z,94579.63
2023-03-30T18:15:20.540Z,94574.34
2023-03-30T18:17:47.351Z,94531.28
2023-03-30T18:20:17.736Z,94582.97
2023-03-30T18:22:44.478Z,94589.66
2023-03-30T18:25:19.120Z,94579.09
2023-03-30T18:27:54.796Z,94583.16
2023-03-30T18:30:24.780Z,94582.53
2023-03-30T18:32:52.256Z,94578.91
2023-03-30T18:35:20.770Z,94600.66
2023-03-30T18:37:48.340Z,94601.06
2023-03-30T18:40:19.742Z,94606.13
2023-03-30T18:42:46.710Z,94594.88
2023-03-30T18:45:15.933Z,94608.19
2023-03-30T18:47:43.387Z,94618.31
2023-03-30T18:50:28.044Z,94616.03
2023-03-30T18:52:54.990Z,94607.38
2023-03-30T18:55:26.824Z,94625.44
2023-03-30T18:57:53.411Z,94619.25
2023-03-30T19:00:23.288Z,94626.53
2023-03-30T19:02:50.435Z,94630.69
2023-03-30T19:05:18.799Z,94630.75
2023-03-30T19:07:46.036Z,94631.25
2023-03-30T19:10:14.724Z,94627.16
2023-03-30T19:12:43.113Z,94630.16
2023-03-30T19:15:19.152Z,94630.09
2023-03-30T19:17:46.251Z,94634.13
2023-03-30T19:20:14.035Z,94636.44
2023-03-30T19:22:40.619Z,94647.94
2023-03-30T19:25:08.579Z,94646.22
2023-03-30T19:27:35.332Z,94644.09
2023-03-30T19:30:05.068Z,94659.19
2023-03-30T19:32:31.803Z,94650.69
2023-03-30T19:34:58.420Z,94658.09
2023-03-30T19:37:25.575Z,94662.75
2023-03-30T19:39:52.142Z,94665.34
2023-03-30T19:42:18.728Z,94662.97
2023-03-30T19:44:45.264Z,94659.53
2023-03-30T19:47:13.344Z,94646.72
2023-03-30T19:49:39.916Z,94650.25
2023-03-30T19:52:06.590Z,94651.84
2023-03-30T19:54:33.374Z,94649.16
2023-03-30T19:56:59.996Z,94655.69
2023-03-30T19:59:28.676Z,94655.97
2023-03-30T20:01:55.845Z,94665.34
2023-03-30T20:04:23.952Z,94642.53
2023-03-30T20:06:50.550Z,94646.13
2023-03-30T20:09:17.365Z,94645.75
2023-03-30T20:11:45.429Z,94637.72
2023-03-30T20:14:12.956Z,94651.16
2023-03-30T20:16:39.694Z,94638.28
2023-03-30T20:19:15.701Z,94652.28
2023-03-30T20:21:44.423Z,94648.56
2023-03-30T20:24:11.157Z,94637.97
2023-03-30T20:26:37.827Z,94636.94
2023-03-30T20:29:04.417Z,94652.72
2023-03-30T20:31:31.505Z,94648.13
2023-03-30T20:33:58.689Z,94649.31
2023-03-30T20:36:28.695Z,94633.41
2023-03-30T20:39:02.262Z,94646.97
2023-03-30T20:41:37.975Z,94649.97
2023-03-30T20:44:05.756Z,94631.00
2023-03-30T20:46:35.243Z,94621.66
2023-03-30T20:49:02.409Z,94620.59
2023-03-30T20:51:29.040Z,94619.22
2023-03-30T20:53:57.004Z,94628.38
2023-03-30T20:56:23.680Z,94625.25
2023-03-30T20:58:50.367Z,94625.16
2023-03-30T21:01:19.122Z,94618.81
2023-03-30T21:03:46.031Z,94624.84
2023-03-30T21:06:14.435Z,94607.16
2023-03-30T21:08:41.553Z,94610.38
2023-03-30T21:11:09.571Z,94609.56
2023-03-30T21:13:36.150Z,94609.81
2023-03-30T21:16:05.977Z,94606.34
2023-03-30T21:18:33.513Z,94622.94
2023-03-30T21:21:00.791Z,94613.34
2023-03-30T21:23:27.409Z,94602.78
2023-03-30T21:25:56.538Z,94615.88
2023-03-30T21:28:26.949Z,94603.34
2023-03-30T21:30:53.635Z,94599.53
2023-03-30T21:33:20.808Z,94596.56
2023-03-30T21:35:49.593Z,94601.91
2023-03-30T21:38:16.983Z,94588.22
2023-03-30T21:40:57.212Z,94588.34
2023-03-30T21:43:25.702Z,94589.03
2023-03-30T21:45:53.817Z,94598.94
2023-03-30T21:48:20.431Z,94589.19
2023-03-30T21:50:47.554Z,94585.69
2023-03-30T21:53:14.153Z,94590.81
2023-03-30T21:55:40.768Z,94590.03
2023-03-30T21:58:07.315Z,94587.81
2023-03-30T22:00:35.368Z,94583.59
2023-03-30T22:03:02.017Z,94578.19
2023-03-30T22:05:28.645Z,94575.09
2023-03-30T22:07:55.382Z,94573.97
2023-03-30T22:10:21.951Z,94575.09
2023-03-30T22:12:50.589Z,94566.97
2023-03-30T22:15:17.210Z,94574.41
2023-03-30T22:17:45.742Z,94583.50
2023-03-30T22:20:12.945Z,94573.69
2023-03-30T22:22:39.951Z,94577.22
2023-03-30T22:25:07.057Z,94574.31
2023-03-30T22:27:34.023Z,94568.22
2023-03-30T22:30:00.650Z,94572.06
2023-03-30T22:32:27.382Z,94560.25
2023-03-30T22:34:55.348Z,94551.03
2023-03-30T22:37:21.906Z,94552.28
2023-03-30T22:39:48.466Z,94551.50
2023-03-30T22:42:15.013Z,94541.47
2023-03-30T22:44:41.583Z,94541.25
2023-03-30T22:47:08.171Z,94531.13
2023-03-30T22:49:34.833Z,94524.91
2023-03-30T22:52:04.741Z,94527.75
2023-03-30T22:54:31.714Z,94526.63
2023-03-30T22:56:58.751Z,94524.94
2023-03-30T22:59:25.618Z,94526.13
2023-03-30T23:01:52.247Z,94520.34
2023-03-30T23:04:19.419Z,94514.84
2023-03-30T23:06:45.945Z,94513.06
2023-03-30T23:09:14.518Z,94501.00
2023-03-30T23:11:42.590Z,94499.56
2023-03-30T23:14:09.187Z,94499.63
2023-03-30T23:16:37.511Z,94496.66
2023-03-30T23:19:04.735Z,94501.97
2023-03-30T23:21:34.614Z,94496.56
2023-03-30T23:24:02.329Z,94498.59
2023-03-30T23:26:30.502Z,94493.69
2023-03-30T23:28:57.374Z,94495.75
2023-03-30T23:31:26.619Z,94485.44
2023-03-30T23:33:53.927Z,94475.69
2023-03-30T23:36:20.583Z,94477.13
2023-03-30T23:38:47.979Z,94475.25
2023-03-30T23:41:16.620Z,94477.97
2023-03-30T23:43:45.368Z,94473.38
2023-03-30T23:46:12.134Z,94470.75
2023-03-30T23:48:38.847Z,94460.06
2023-03-30T23:51:05.981Z,94451.13
2023-03-30T23:53:32.928Z,94453.25
2023-03-30T23:56:00.167Z,94458.31
2023-03-30T23:58:26.839Z,94442.44
